sensor_id;sensor_type;location;lat;lon;timestamp;pressure;altitude;pressure_sealevel;temperature;humidity
70925;BME280;58577;52.410;13.242;2023-02-02T00:00:53;-12374.16;;;2.51;100.00
70925;BME280;58577;52.410;13.242;2023-02-02T00:03:39;-12374.34;;;2.52;100.00
70925;BME280;58577;52.410;13.242;2023-02-02T00:06:28;-12376.41;;;2.64;100.00
70925;BME280;58577;52.410;13.242;2023-02-02T00:09:16;-12379.41;;;2.81;100.00
70925;BME280;58577;52.410;13.242;2023-02-02T00:12:02;-12380.41;;;2.86;99.77
70925;BME280;58577;52.410;13.242;2023-02-02T00:14:48;-12381.50;;;2.92;99.51
70925;BME280;58577;52.410;13.242;2023-02-02T00:17:34;-12381.84;;;2.94;99.18
70925;BME280;58577;52.410;13.242;2023-02-02T00:20:20;-12382.41;;;2.98;99.16
70925;BME280;58577;52.410;13.242;2023-02-02T00:23:07;-12382.22;;;2.97;98.76
70925;BME280;58577;52.410;13.242;2023-02-02T00:25:52;-12384.22;;;3.08;98.25
70925;BME280;58577;52.410;13.242;2023-02-02T00:28:38;-12385.84;;;3.17;98.20
70925;BME280;58577;52.410;13.242;2023-02-02T00:31:24;-12384.28;;;3.08;98.39
70925;BME280;58577;52.410;13.242;2023-02-02T00:34:12;-12384.66;;;3.10;98.08
70925;BME280;58577;52.410;13.242;2023-02-02T00:36:58;-12383.31;;;3.03;98.60
70925;BME280;58577;52.410;13.242;2023-02-02T00:39:44;-12385.28;;;3.14;98.30
70925;BME280;58577;52.410;13.242;2023-02-02T00:42:29;-12387.00;;;3.24;97.49
70925;BME280;58577;52.410;13.242;2023-02-02T00:45:15;-12387.28;;;3.25;97.70
70925;BME280;58577;52.410;13.242;2023-02-02T00:48:01;-12388.00;;;3.29;97.78
70925;BME280;58577;52.410;13.242;2023-02-02T00:50:47;-12387.47;;;3.26;97.55
70925;BME280;58577;52.410;13.242;2023-02-02T00:53:33;-12388.81;;;3.34;96.76
70925;BME280;58577;52.410;13.242;2023-02-02T00:56:19;-12387.09;;;3.24;nan
70925;BME280;58577;52.410;13.242;2023-02-02T00:59:05;-12387.91;;;3.29;99.33
70925;BME280;58577;52.410;13.242;2023-02-02T01:01:51;-12386.00;;;3.18;100.00
70925;BME280;58577;52.410;13.242;2023-02-02T01:04:37;-12385.84;;;3.17;100.00
70925;BME280;58577;52.410;13.242;2023-02-02T01:07:23;-12386.00;;;3.18;100.00
70925;BME280;58577;52.410;13.242;2023-02-02T01:10:15;-12386.09;;;3.19;100.00
70925;BME280;58577;52.410;13.242;2023-02-02T01:13:02;-12386.09;;;3.19;100.00
70925;BME280;58577;52.410;13.242;2023-02-02T01:15:47;-12385.28;;;3.14;100.00
70925;BME280;58577;52.410;13.242;2023-02-02T01:18:33;-12386.00;;;3.18;100.00
70925;BME280;58577;52.410;13.242;2023-02-02T01:21:19;-12385.66;;;3.16;100.00
70925;BME280;58577;52.410;13.242;2023-02-02T01:24:05;-12385.28;;;3.14;100.00
70925;BME280;58577;52.410;13.242;2023-02-02T01:26:51;-12385.47;;;3.15;100.00
70925;BME280;58577;52.410;13.242;2023-02-02T01:29:37;-12385.56;;;3.15;100.00
70925;BME280;58577;52.410;13.242;2023-02-02T01:32:23;-12385.47;;;3.15;100.00
70925;BME280;58577;52.410;13.242;2023-02-02T01:35:09;-12385.66;;;3.16;100.00
70925;BME280;58577;52.410;13.242;2023-02-02T01:37:55;-12385.66;;;3.16;100.00
70925;BME280;58577;52.410;13.242;2023-02-02T01:41:00;-12383.66;;;3.05;100.00
70925;BME280;58577;52.410;13.242;2023-02-02T01:46:35;-12382.50;;;2.98;100.00
70925;BME280;58577;52.410;13.242;2023-02-02T01:49:21;-12381.22;;;2.91;100.00
70925;BME280;58577;52.410;13.242;2023-02-02T01:52:08;-12379.88;;;2.83;100.00
70925;BME280;58577;52.410;13.242;2023-02-02T01:55:00;-12380.31;;;2.86;100.00
70925;BME280;58577;52.410;13.242;2023-02-02T01:57:56;-12379.78;;;2.83;100.00
70925;BME280;58577;52.410;13.242;2023-02-02T02:00:44;-12381.03;;;2.90;100.00
70925;BME280;58577;52.410;13.242;2023-02-02T02:03:31;-12380.94;;;2.89;100.00
70925;BME280;58577;52.410;13.242;2023-02-02T02:06:18;-12380.78;;;2.88;100.00
70925;BME280;58577;52.410;13.242;2023-02-02T02:09:06;-12379.94;;;2.84;100.00
70925;BME280;58577;52.410;13.242;2023-02-02T02:11:53;-12380.78;;;2.88;100.00
70925;BME280;58577;52.410;13.242;2023-02-02T02:14:39;-12380.31;;;2.86;100.00
70925;BME280;58577;52.410;13.242;2023-02-02T02:18:03;-12379.31;;;2.80;100.00
70925;BME280;58577;52.410;13.242;2023-02-02T02:21:31;-12380.13;;;2.85;100.00
70925;BME280;58577;52.410;13.242;2023-02-02T02:25:51;-12380.13;;;2.85;100.00
70925;BME280;58577;52.410;13.242;2023-02-02T02:29:02;-12381.22;;;2.91;100.00
70925;BME280;58577;52.410;13.242;2023-02-02T02:32:13;-12380.13;;;2.85;100.00
70925;BME280;58577;52.410;13.242;2023-02-02T02:35:31;-12380.59;;;2.87;100.00
70925;BME280;58577;52.410;13.242;2023-02-02T02:38:35;-12381.31;;;2.91;100.00
70925;BME280;58577;52.410;13.242;2023-02-02T02:41:27;-12382.41;;;2.98;100.00
70925;BME280;58577;52.410;13.242;2023-02-02T02:44:15;-12382.41;;;2.98;100.00
70925;BME280;58577;52.410;13.242;2023-02-02T02:47:03;-12383.75;;;3.05;100.00
70925;BME280;58577;52.410;13.242;2023-02-02T02:49:49;-12383.84;;;3.06;100.00
70925;BME280;58577;52.410;13.242;2023-02-02T02:52:35;-12383.47;;;3.04;100.00
70925;BME280;58577;52.410;13.242;2023-02-02T02:55:24;-12384.22;;;3.08;100.00
70925;BME280;58577;52.410;13.242;2023-02-02T02:58:17;-12383.84;;;3.06;100.00
70925;BME280;58577;52.410;13.242;2023-02-02T03:01:13;-12383.84;;;3.06;100.00
70925;BME280;58577;52.410;13.242;2023-02-02T03:04:09;-12384.13;;;3.07;100.00
70925;BME280;58577;52.410;13.242;2023-02-02T03:07:03;-12383.66;;;3.05;100.00
70925;BME280;58577;52.410;13.242;2023-02-02T03:09:51;-12383.75;;;3.05;100.00
70925;BME280;58577;52.410;13.242;2023-02-02T03:12:47;-12382.94;;;3.01;100.00
70925;BME280;58577;52.410;13.242;2023-02-02T03:15:34;-12381.66;;;2.93;100.00
70925;BME280;58577;52.410;13.242;2023-02-02T03:18:22;-12381.03;;;2.90;100.00
70925;BME280;58577;52.410;13.242;2023-02-02T03:21:09;-12380.94;;;2.89;100.00
70925;BME280;58577;52.410;13.242;2023-02-02T03:23:55;-12378.97;;;2.78;100.00
70925;BME280;58577;52.410;13.242;2023-02-02T03:26:41;-12378.97;;;2.78;100.00
70925;BME280;58577;52.410;13.242;2023-02-02T03:29:28;-12379.41;;;2.81;100.00
70925;BME280;58577;52.410;13.242;2023-02-02T03:32:14;-12380.50;;;2.87;100.00
70925;BME280;58577;52.410;13.242;2023-02-02T03:35:00;-12381.03;;;2.90;100.00
70925;BME280;58577;52.410;13.242;2023-02-02T03:37:46;-12380.13;;;2.85;100.00
70925;BME280;58577;52.410;13.242;2023-02-02T03:40:32;-12379.94;;;2.84;100.00
70925;BME280;58577;52.410;13.242;2023-02-02T03:43:22;-12380.03;;;2.84;100.00
70925;BME280;58577;52.410;13.242;2023-02-02T03:46:08;-12380.69;;;2.88;100.00
70925;BME280;58577;52.410;13.242;2023-02-02T03:48:54;-12381.31;;;2.91;100.00
70925;BME280;58577;52.410;13.242;2023-02-02T03:51:40;-12381.84;;;2.94;100.00
70925;BME280;58577;52.410;13.242;2023-02-02T03:54:27;-12381.41;;;2.92;100.00
70925;BME280;58577;52.410;13.242;2023-02-02T03:57:13;-12380.69;;;2.88;100.00
70925;BME280;58577;52.410;13.242;2023-02-02T03:59:59;-12380.03;;;2.84;100.00
70925;BME280;58577;52.410;13.242;2023-02-02T04:02:45;-12381.31;;;2.91;100.00
70925;BME280;58577;52.410;13.242;2023-02-02T04:05:30;-12380.94;;;2.89;100.00
70925;BME280;58577;52.410;13.242;2023-02-02T04:08:16;-12380.94;;;2.89;100.00
70925;BME280;58577;52.410;13.242;2023-02-02T04:11:02;-12381.59;;;2.93;100.00
70925;BME280;58577;52.410;13.242;2023-02-02T04:13:48;-12382.66;;;2.99;100.00
70925;BME280;58577;52.410;13.242;2023-02-02T04:16:34;-12382.94;;;3.01;100.00
70925;BME280;58577;52.410;13.242;2023-02-02T04:19:22;-12383.03;;;3.01;100.00
70925;BME280;58577;52.410;13.242;2023-02-02T04:22:08;-12384.22;;;3.08;100.00
70925;BME280;58577;52.410;13.242;2023-02-02T04:24:53;-12383.94;;;3.06;100.00
70925;BME280;58577;52.410;13.242;2023-02-02T04:27:39;-12383.75;;;3.05;100.00
70925;BME280;58577;52.410;13.242;2023-02-02T04:30:25;-12385.19;;;3.13;100.00
70925;BME280;58577;52.410;13.242;2023-02-02T04:33:11;-12383.94;;;3.06;100.00
70925;BME280;58577;52.410;13.242;2023-02-02T04:35:57;-12385.13;;;3.13;100.00
70925;BME280;58577;52.410;13.242;2023-02-02T04:38:43;-12384.56;;;3.10;100.00
70925;BME280;58577;52.410;13.242;2023-02-02T04:41:28;-12385.75;;;3.17;100.00
70925;BME280;58577;52.410;13.242;2023-02-02T04:44:15;-12385.66;;;3.16;100.00
70925;BME280;58577;52.410;13.242;2023-02-02T04:47:01;-12385.03;;;3.12;100.00
70925;BME280;58577;52.410;13.242;2023-02-02T04:49:46;-12386.00;;;3.18;100.00
70925;BME280;58577;52.410;13.242;2023-02-02T04:52:32;-12386.00;;;3.18;100.00
70925;BME280;58577;52.410;13.242;2023-02-02T04:55:19;-12385.47;;;3.15;100.00
70925;BME280;58577;52.410;13.242;2023-02-02T04:58:05;-12385.13;;;3.13;100.00
70925;BME280;58577;52.410;13.242;2023-02-02T05:00:51;-12386.19;;;3.19;100.00
70925;BME280;58577;52.410;13.242;2023-02-02T05:03:37;-12386.09;;;3.19;100.00
70925;BME280;58577;52.410;13.242;2023-02-02T05:06:23;-12386.09;;;3.19;100.00
70925;BME280;58577;52.410;13.242;2023-02-02T05:09:10;-12386.38;;;3.20;100.00
70925;BME280;58577;52.410;13.242;2023-02-02T05:11:55;-12385.84;;;3.17;100.00
70925;BME280;58577;52.410;13.242;2023-02-02T05:14:41;-12385.19;;;3.13;100.00
70925;BME280;58577;52.410;13.242;2023-02-02T05:17:27;-12386.84;;;3.23;100.00
70925;BME280;58577;52.410;13.242;2023-02-02T05:20:13;-12387.19;;;3.25;100.00
70925;BME280;58577;52.410;13.242;2023-02-02T05:22:59;-12386.09;;;3.19;100.00
70925;BME280;58577;52.410;13.242;2023-02-02T05:25:55;-12385.75;;;3.17;100.00
70925;BME280;58577;52.410;13.242;2023-02-02T05:28:41;-12386.84;;;3.23;100.00
70925;BME280;58577;52.410;13.242;2023-02-02T05:31:27;-12386.56;;;3.21;100.00
70925;BME280;58577;52.410;13.242;2023-02-02T05:34:14;-12385.84;;;3.17;100.00
70925;BME280;58577;52.410;13.242;2023-02-02T05:37:00;-12386.09;;;3.19;100.00
70925;BME280;58577;52.410;13.242;2023-02-02T05:39:46;-12386.84;;;3.23;100.00
70925;BME280;58577;52.410;13.242;2023-02-02T05:42:32;-12386.56;;;3.21;100.00
70925;BME280;58577;52.410;13.242;2023-02-02T05:45:17;-12386.75;;;3.22;100.00
70925;BME280;58577;52.410;13.242;2023-02-02T05:48:03;-12386.75;;;3.22;100.00
70925;BME280;58577;52.410;13.242;2023-02-02T05:50:58;-12386.75;;;3.22;100.00
70925;BME280;58577;52.410;13.242;2023-02-02T05:53:45;-12387.09;;;3.24;100.00
70925;BME280;58577;52.410;13.242;2023-02-02T05:56:31;-12387.00;;;3.24;100.00
70925;BME280;58577;52.410;13.242;2023-02-02T05:59:17;-12386.09;;;3.19;100.00
70925;BME280;58577;52.410;13.242;2023-02-02T06:02:03;-12386.75;;;3.22;100.00
70925;BME280;58577;52.410;13.242;2023-02-02T06:04:49;-12386.09;;;3.19;100.00
70925;BME280;58577;52.410;13.242;2023-02-02T06:07:35;-12386.19;;;3.19;100.00
70925;BME280;58577;52.410;13.242;2023-02-02T06:10:21;-12385.03;;;3.12;100.00
70925;BME280;58577;52.410;13.242;2023-02-02T06:13:07;-12385.56;;;3.15;100.00
70925;BME280;58577;52.410;13.242;2023-02-02T06:15:53;-12385.47;;;3.15;100.00
70925;BME280;58577;52.410;13.242;2023-02-02T06:18:39;-12385.47;;;3.15;100.00
70925;BME280;58577;52.410;13.242;2023-02-02T06:21:24;-12385.84;;;3.17;100.00
70925;BME280;58577;52.410;13.242;2023-02-02T06:24:10;-12384.94;;;3.12;100.00
70925;BME280;58577;52.410;13.242;2023-02-02T06:26:56;-12385.28;;;3.14;100.00
70925;BME280;58577;52.410;13.242;2023-02-02T06:29:42;-12384.38;;;3.09;100.00
70925;BME280;58577;52.410;13.242;2023-02-02T06:32:28;-12384.66;;;3.10;100.00
70925;BME280;58577;52.410;13.242;2023-02-02T06:35:15;-12384.03;;;3.07;100.00
70925;BME280;58577;52.410;13.242;2023-02-02T06:38:01;-12383.66;;;3.05;100.00
70925;BME280;58577;52.410;13.242;2023-02-02T06:40:47;-12381.50;;;2.92;100.00
70925;BME280;58577;52.410;13.242;2023-02-02T06:43:33;-12380.94;;;2.89;100.00
70925;BME280;58577;52.410;13.242;2023-02-02T06:46:18;-12380.41;;;2.86;100.00
70925;BME280;58577;52.410;13.242;2023-02-02T06:49:04;-12379.50;;;2.81;100.00
70925;BME280;58577;52.410;13.242;2023-02-02T06:51:50;-12380.41;;;2.86;100.00
70925;BME280;58577;52.410;13.242;2023-02-02T06:54:36;-12381.31;;;2.91;100.00
70925;BME280;58577;52.410;13.242;2023-02-02T06:57:21;-12381.59;;;2.93;100.00
70925;BME280;58577;52.410;13.242;2023-02-02T07:00:08;-12380.22;;;2.85;100.00
70925;BME280;58577;52.410;13.242;2023-02-02T07:02:54;-12380.03;;;2.84;100.00
70925;BME280;58577;52.410;13.242;2023-02-02T07:05:40;-12378.59;;;2.76;100.00
70925;BME280;58577;52.410;13.242;2023-02-02T07:08:26;-12377.31;;;2.69;100.00
70925;BME280;58577;52.410;13.242;2023-02-02T07:11:12;-12377.88;;;2.72;100.00
70925;BME280;58577;52.410;13.242;2023-02-02T07:13:58;-12379.59;;;2.82;100.00
70925;BME280;58577;52.410;13.242;2023-02-02T07:16:43;-12381.13;;;2.90;100.00
70925;BME280;58577;52.410;13.242;2023-02-02T07:19:29;-12384.56;;;3.10;100.00
70925;BME280;58577;52.410;13.242;2023-02-02T07:22:15;-12385.47;;;3.15;100.00
70925;BME280;58577;52.410;13.242;2023-02-02T07:25:01;-12385.19;;;3.13;100.00
70925;BME280;58577;52.410;13.242;2023-02-02T07:27:51;-12385.56;;;3.15;100.00
70925;BME280;58577;52.410;13.242;2023-02-02T07:30:37;-12384.03;;;3.07;100.00
70925;BME280;58577;52.410;13.242;2023-02-02T07:33:23;-12383.47;;;3.04;100.00
70925;BME280;58577;52.410;13.242;2023-02-02T07:36:11;-12386.00;;;3.18;100.00
70925;BME280;58577;52.410;13.242;2023-02-02T07:38:57;-12388.00;;;3.29;100.00
70925;BME280;58577;52.410;13.242;2023-02-02T07:41:43;-12390.44;;;3.43;100.00
70925;BME280;58577;52.410;13.242;2023-02-02T07:44:41;-12392.53;;;3.55;100.00
70925;BME280;58577;52.410;13.242;2023-02-02T07:47:27;-12391.81;;;3.51;100.00
70925;BME280;58577;52.410;13.242;2023-02-02T07:50:13;-12391.91;;;3.51;100.00
70925;BME280;58577;52.410;13.242;2023-02-02T07:52:59;-12392.72;;;3.56;100.00
70925;BME280;58577;52.410;13.242;2023-02-02T07:55:45;-12391.34;;;3.48;100.00
70925;BME280;58577;52.410;13.242;2023-02-02T07:58:31;-12390.00;;;3.41;100.00
70925;BME280;58577;52.410;13.242;2023-02-02T08:01:17;-12388.56;;;3.32;100.00
70925;BME280;58577;52.410;13.242;2023-02-02T08:04:04;-12391.34;;;3.48;100.00
70925;BME280;58577;52.410;13.242;2023-02-02T08:06:50;-12393.63;;;3.61;100.00
70925;BME280;58577;52.410;13.242;2023-02-02T08:09:36;-12394.06;;;3.64;100.00
70925;BME280;58577;52.410;13.242;2023-02-02T08:12:23;-12394.69;;;3.67;100.00
70925;BME280;58577;52.410;13.242;2023-02-02T08:15:09;-12393.63;;;3.61;100.00
70925;BME280;58577;52.410;13.242;2023-02-02T08:17:56;-12395.06;;;3.69;100.00
70925;BME280;58577;52.410;13.242;2023-02-02T08:20:43;-12396.59;;;3.78;100.00
70925;BME280;58577;52.410;13.242;2023-02-02T08:23:29;-12400.75;;;4.02;100.00
70925;BME280;58577;52.410;13.242;2023-02-02T08:26:27;-12402.38;;;4.11;100.00
70925;BME280;58577;52.410;13.242;2023-02-02T08:29:13;-12400.50;;;4.00;100.00
70925;BME280;58577;52.410;13.242;2023-02-02T08:32:02;-12395.16;;;3.70;100.00
70925;BME280;58577;52.410;13.242;2023-02-02T08:34:48;-12392.00;;;3.52;100.00
70925;BME280;58577;52.410;13.242;2023-02-02T08:37:36;-12393.16;;;3.59;100.00
70925;BME280;58577;52.410;13.242;2023-02-02T08:40:22;-12391.91;;;3.51;100.00
70925;BME280;58577;52.410;13.242;2023-02-02T08:42:53;-12395.34;;;3.71;100.00
70925;BME280;58577;52.410;13.242;2023-02-02T08:45:19;-12403.75;;;4.19;100.00
70925;BME280;58577;52.410;13.242;2023-02-02T08:48:04;-12422.34;;;5.24;97.05
70925;BME280;58577;52.410;13.242;2023-02-02T08:50:53;-12431.19;;;5.75;92.94
70925;BME280;58577;52.410;13.242;2023-02-02T08:53:40;-12437.13;;;6.08;90.74
70925;BME280;58577;52.410;13.242;2023-02-02T08:56:26;-12434.34;;;5.93;89.24
70925;BME280;58577;52.410;13.242;2023-02-02T08:59:12;-12436.13;;;6.03;87.38
70925;BME280;58577;52.410;13.242;2023-02-02T09:01:58;-12437.50;;;6.10;84.75
70925;BME280;58577;52.410;13.242;2023-02-02T09:04:44;-12448.28;;;6.72;85.94
70925;BME280;58577;52.410;13.242;2023-02-02T09:07:31;-12447.56;;;6.68;83.28
70925;BME280;58577;52.410;13.242;2023-02-02T09:10:17;-12444.88;;;6.53;84.53
70925;BME280;58577;52.410;13.242;2023-02-02T09:13:03;-12449.47;;;6.79;82.89
70925;BME280;58577;52.410;13.242;2023-02-02T09:15:49;-12465.56;;;7.71;81.24
70925;BME280;58577;52.410;13.242;2023-02-02T09:18:35;-12469.34;;;7.92;77.48
70925;BME280;58577;52.410;13.242;2023-02-02T09:21:21;-12462.16;;;7.51;78.99
70925;BME280;58577;52.410;13.242;2023-02-02T09:24:12;-12471.84;;;8.06;75.93
70925;BME280;58577;52.410;13.242;2023-02-02T09:26:58;-12457.75;;;7.26;78.48
70925;BME280;58577;52.410;13.242;2023-02-02T09:29:43;-12461.34;;;7.46;77.51
70925;BME280;58577;52.410;13.242;2023-02-02T09:32:29;-12460.09;;;7.39;78.33
70925;BME280;58577;52.410;13.242;2023-02-02T09:35:15;-12454.16;;;7.05;79.71
70925;BME280;58577;52.410;13.242;2023-02-02T09:38:01;-12450.19;;;6.83;80.41
70925;BME280;58577;52.410;13.242;2023-02-02T09:40:47;-12447.75;;;6.69;83.08
70925;BME280;58577;52.410;13.242;2023-02-02T09:43:39;-12439.09;;;6.20;83.31
70925;BME280;58577;52.410;13.242;2023-02-02T09:46:47;-12433.06;;;5.85;85.72
70925;BME280;58577;52.410;13.242;2023-02-02T09:52:50;-12440.47;;;6.27;84.22
70925;BME280;58577;52.410;13.242;2023-02-02T09:55:42;-12462.31;;;7.52;80.52
70925;BME280;58577;52.410;13.242;2023-02-02T09:58:38;-12456.75;;;7.20;78.54
70925;BME280;58577;52.410;13.242;2023-02-02T10:01:30;-12466.81;;;7.78;76.62
70925;BME280;58577;52.410;13.242;2023-02-02T10:04:21;-12476.44;;;8.33;73.81
70925;BME280;58577;52.410;13.242;2023-02-02T10:07:18;-12453.44;;;7.01;77.04
70925;BME280;58577;52.410;13.242;2023-02-02T10:10:11;-12459.19;;;7.34;77.40
70925;BME280;58577;52.410;13.242;2023-02-02T10:13:08;-12443.63;;;6.45;80.12
70925;BME280;58577;52.410;13.242;2023-02-02T10:19:01;-12436.41;;;6.04;80.88
70925;BME280;58577;52.410;13.242;2023-02-02T10:21:56;-12441.63;;;6.34;82.70
70925;BME280;58577;52.410;13.242;2023-02-02T10:24:44;-12438.75;;;6.18;80.50
70925;BME280;58577;52.410;13.242;2023-02-02T10:27:37;-12431.72;;;5.78;81.79
70925;BME280;58577;52.410;13.242;2023-02-02T10:30:33;-12434.44;;;5.93;81.45
70925;BME280;58577;52.410;13.242;2023-02-02T10:33:37;-12434.25;;;5.92;82.50
70925;BME280;58577;52.410;13.242;2023-02-02T10:36:32;-12431.44;;;5.76;81.85
70925;BME280;58577;52.410;13.242;2023-02-02T10:46:12;-12424.88;;;5.39;82.32
70925;BME280;58577;52.410;13.242;2023-02-02T10:49:20;-12436.78;;;6.06;80.14
70925;BME280;58577;52.410;13.242;2023-02-02T11:00:57;-12426.84;;;5.50;82.25
70925;BME280;58577;52.410;13.242;2023-02-02T11:03:45;-12447.75;;;6.69;78.32
70925;BME280;58577;52.410;13.242;2023-02-02T11:06:31;-12442.44;;;6.39;79.50
70925;BME280;58577;52.410;13.242;2023-02-02T11:09:41;-12437.22;;;6.09;78.07
70925;BME280;58577;52.410;13.242;2023-02-02T11:12:43;-12437.84;;;6.13;78.81
70925;BME280;58577;52.410;13.242;2023-02-02T11:15:31;-12437.84;;;6.13;79.50
70925;BME280;58577;52.410;13.242;2023-02-02T11:18:27;-12433.78;;;5.89;77.31
70925;BME280;58577;52.410;13.242;2023-02-02T11:21:21;-12432.81;;;5.84;76.33
70925;BME280;58577;52.410;13.242;2023-02-02T11:24:21;-12430.81;;;5.72;78.37
70925;BME280;58577;52.410;13.242;2023-02-02T11:27:15;-12426.56;;;5.48;76.80
70925;BME280;58577;52.410;13.242;2023-02-02T11:30:18;-12426.84;;;5.50;78.16
70925;BME280;58577;52.410;13.242;2023-02-02T11:33:32;-12424.16;;;5.35;79.03
70925;BME280;58577;52.410;13.242;2023-02-02T11:36:20;-12426.41;;;5.47;81.09
70925;BME280;58577;52.410;13.242;2023-02-02T11:39:19;-12426.84;;;5.50;78.22
70925;BME280;58577;52.410;13.242;2023-02-02T11:42:15;-12429.19;;;5.63;77.63
70925;BME280;58577;52.410;13.242;2023-02-02T11:45:01;-12431.09;;;5.74;80.03
70925;BME280;58577;52.410;13.242;2023-02-02T11:47:49;-12433.78;;;5.89;80.22
70925;BME280;58577;52.410;13.242;2023-02-02T11:50:36;-12432.53;;;5.82;81.24
70925;BME280;58577;52.410;13.242;2023-02-02T11:56:21;-12432.34;;;5.81;81.18
70925;BME280;58577;52.410;13.242;2023-02-02T11:59:29;-12430.47;;;5.70;81.80
70925;BME280;58577;52.410;13.242;2023-02-02T12:05:12;-12429.75;;;5.66;81.63
70925;BME280;58577;52.410;13.242;2023-02-02T12:07:59;-12433.69;;;5.89;80.73
70925;BME280;58577;52.410;13.242;2023-02-02T12:10:58;-12434.16;;;5.91;79.58
70925;BME280;58577;52.410;13.242;2023-02-02T12:22:48;-12443.16;;;6.43;77.04
70925;BME280;58577;52.410;13.242;2023-02-02T12:25:53;-12445.06;;;6.54;78.13
70925;BME280;58577;52.410;13.242;2023-02-02T12:29:05;-12440.72;;;6.29;78.06
70925;BME280;58577;52.410;13.242;2023-02-02T12:32:12;-12425.50;;;5.42;86.32
70925;BME280;58577;52.410;13.242;2023-02-02T12:42:19;-12401.47;;;4.06;100.00
70925;BME280;58577;52.410;13.242;2023-02-02T12:51:32;-12393.63;;;3.61;100.00
70925;BME280;58577;52.410;13.242;2023-02-02T13:03:27;-12396.25;;;3.76;100.00
70925;BME280;58577;52.410;13.242;2023-02-02T13:06:37;-12395.16;;;3.70;100.00
70925;BME280;58577;52.410;13.242;2023-02-02T13:09:29;-12394.25;;;3.65;100.00
70925;BME280;58577;52.410;13.242;2023-02-02T13:12:21;-12391.16;;;3.47;100.00
70925;BME280;58577;52.410;13.242;2023-02-02T13:15:12;-12392.72;;;3.56;100.00
70925;BME280;58577;52.410;13.242;2023-02-02T13:18:06;-12395.97;;;3.74;100.00
70925;BME280;58577;52.410;13.242;2023-02-02T13:21:01;-12398.94;;;3.91;100.00
70925;BME280;58577;52.410;13.242;2023-02-02T13:23:56;-12399.22;;;3.93;100.00
70925;BME280;58577;52.410;13.242;2023-02-02T13:26:46;-12398.13;;;3.87;100.00
70925;BME280;58577;52.410;13.242;2023-02-02T13:29:54;-12400.66;;;4.01;100.00
70925;BME280;58577;52.410;13.242;2023-02-02T13:32:44;-12403.84;;;4.19;100.00
70925;BME280;58577;52.410;13.242;2023-02-02T13:35:44;-12409.06;;;4.49;100.00
70925;BME280;58577;52.410;13.242;2023-02-02T13:38:33;-12408.72;;;4.47;99.11
70925;BME280;58577;52.410;13.242;2023-02-02T13:41:24;-12407.34;;;4.39;98.32
70925;BME280;58577;52.410;13.242;2023-02-02T13:44:24;-12406.44;;;4.34;98.07
70925;BME280;58577;52.410;13.242;2023-02-02T13:47:23;-12406.44;;;4.34;97.73
70925;BME280;58577;52.410;13.242;2023-02-02T13:50:14;-12405.28;;;4.27;97.61
70925;BME280;58577;52.410;13.242;2023-02-02T13:53:13;-12405.09;;;4.26;96.21
70925;BME280;58577;52.410;13.242;2023-02-02T14:02:00;-12397.88;;;3.85;96.59
70925;BME280;58577;52.410;13.242;2023-02-02T14:04:52;-12398.06;;;3.86;95.99
70925;BME280;58577;52.410;13.242;2023-02-02T14:07:42;-12397.78;;;3.85;95.26
70925;BME280;58577;52.410;13.242;2023-02-02T14:10:35;-12396.97;;;3.80;95.59
70925;BME280;58577;52.410;13.242;2023-02-02T14:13:23;-12396.78;;;3.79;93.78
70925;BME280;58577;52.410;13.242;2023-02-02T14:22:43;-12395.78;;;3.73;92.76
70925;BME280;58577;52.410;13.242;2023-02-02T14:28:43;-12392.81;;;3.57;92.34
70925;BME280;58577;52.410;13.242;2023-02-02T14:31:52;-12391.44;;;3.49;91.58
70925;BME280;58577;52.410;13.242;2023-02-02T14:34:39;-12390.09;;;3.41;92.13
70925;BME280;58577;52.410;13.242;2023-02-02T14:51:48;-12385.13;;;3.13;88.97
70925;BME280;58577;52.410;13.242;2023-02-02T14:54:36;-12383.84;;;3.06;89.14
70925;BME280;58577;52.410;13.242;2023-02-02T14:57:26;-12383.22;;;3.02;90.49
70925;BME280;58577;52.410;13.242;2023-02-02T15:00:27;-12382.03;;;2.95;90.61
70925;BME280;58577;52.410;13.242;2023-02-02T15:03:36;-12382.31;;;2.97;91.08
70925;BME280;58577;52.410;13.242;2023-02-02T15:06:35;-12382.13;;;2.96;88.76
70925;BME280;58577;52.410;13.242;2023-02-02T15:18:31;-12379.69;;;2.82;89.12
70925;BME280;58577;52.410;13.242;2023-02-02T15:21:22;-12379.22;;;2.80;88.52
70925;BME280;58577;52.410;13.242;2023-02-02T15:24:19;-12379.03;;;2.79;86.88
70925;BME280;58577;52.410;13.242;2023-02-02T15:27:14;-12377.50;;;2.70;88.29
70925;BME280;58577;52.410;13.242;2023-02-02T15:30:06;-12375.69;;;2.60;87.68
70925;BME280;58577;52.410;13.242;2023-02-02T15:32:54;-12375.50;;;2.59;88.16
70925;BME280;58577;52.410;13.242;2023-02-02T15:35:41;-12374.06;;;2.50;87.33
70925;BME280;58577;52.410;13.242;2023-02-02T15:38:32;-12373.53;;;2.47;86.14
70925;BME280;58577;52.410;13.242;2023-02-02T15:41:31;-12371.91;;;2.38;86.79
70925;BME280;58577;52.410;13.242;2023-02-02T15:44:26;-12370.25;;;2.29;86.54
70925;BME280;58577;52.410;13.242;2023-02-02T15:47:18;-12369.91;;;2.27;87.57
70925;BME280;58577;52.410;13.242;2023-02-02T15:50:17;-12368.25;;;2.17;85.93
70925;BME280;58577;52.410;13.242;2023-02-02T15:53:04;-12367.19;;;2.11;84.90
70925;BME280;58577;52.410;13.242;2023-02-02T15:55:51;-12365.72;;;2.03;84.74
70925;BME280;58577;52.410;13.242;2023-02-02T15:58:38;-12366.81;;;2.09;84.60
70925;BME280;58577;52.410;13.242;2023-02-02T16:01:26;-12364.09;;;1.94;84.95
70925;BME280;58577;52.410;13.242;2023-02-02T16:04:22;-12363.38;;;1.90;84.42
70925;BME280;58577;52.410;13.242;2023-02-02T16:07:31;-12361.38;;;1.79;86.23
70925;BME280;58577;52.410;13.242;2023-02-02T16:10:19;-12360.00;;;1.71;85.55
70925;BME280;58577;52.410;13.242;2023-02-02T16:13:05;-12357.84;;;1.59;85.67
70925;BME280;58577;52.410;13.242;2023-02-02T16:16:06;-12355.56;;;1.46;86.90
70925;BME280;58577;52.410;13.242;2023-02-02T16:19:13;-12354.03;;;1.37;87.45
70925;BME280;58577;52.410;13.242;2023-02-02T16:22:05;-12351.75;;;1.24;87.63
70925;BME280;58577;52.410;13.242;2023-02-02T16:24:54;-12348.75;;;1.07;88.47